Time;durP1;ratioP1;P1;durP2;ratioP2;P2;SDS_P1;SDS_P2;PMS_P1;PMS_P2;Temp;Humidity;BMP_temperature;BMP_pressure;BME280_temperature;BME280_humidity;BME280_pressure;Samples;Min_cycle;Max_cycle;Signal;HPM_P1;HPM_P2
2023/11/08 00:01:24;;;;;;;3.90;2.40;;;8.40;1.00;;;;;;5139355;27;20450;-65
2023/11/08 00:03:51;;;;;;;5.63;2.47;;;8.40;1.00;;;;;;5139391;27;20451;-67
2023/11/08 00:06:20;;;;;;;6.50;3.37;;;8.40;50.20;;;;;;5138043;27;20527;-64
2023/11/08 00:08:50;;;;;;;5.17;2.40;;;8.40;58.90;;;;;;5138622;27;20525;-65
2023/11/08 00:11:22;;;;;;;8.63;3.60;;;8.30;41.00;;;;;;5138697;27;20870;-65
2023/11/08 00:13:50;;;;;;;3.93;2.40;;;8.30;59.00;;;;;;5138717;27;20820;-66
2023/11/08 00:16:18;;;;;;;7.87;2.40;;;8.40;69.70;;;;;;5138637;27;20458;-67
2023/11/08 00:18:46;;;;;;;4.93;2.33;;;8.30;56.30;;;;;;5138629;27;20864;-66
2023/11/08 00:21:13;;;;;;;4.13;1.90;;;8.30;92.40;;;;;;5138357;27;20521;-67
2023/11/08 00:23:42;;;;;;;6.60;2.97;;;8.30;99.90;;;;;;5138487;27;20443;-66
2023/11/08 00:26:09;;;;;;;4.73;2.50;;;8.30;99.90;;;;;;5140580;27;20761;-69
2023/11/08 00:28:37;;;;;;;5.23;2.37;;;8.30;99.90;;;;;;5139785;28;20855;-66
2023/11/08 00:31:04;;;;;;;4.53;2.83;;;8.20;99.90;;;;;;5139141;28;20725;-66
2023/11/08 00:33:31;;;;;;;5.27;2.27;;;8.20;99.90;;;;;;5139183;28;20486;-67
2023/11/08 00:35:58;;;;;;;4.33;2.60;;;8.10;99.90;;;;;;5138537;28;20752;-67
2023/11/08 00:38:26;;;;;;;6.33;2.37;;;8.20;1.00;;;;;;5137854;28;20475;-67
2023/11/08 00:40:54;;;;;;;3.67;2.57;;;8.10;1.00;;;;;;5137905;28;20459;-67
2023/11/08 00:43:22;;;;;;;4.60;2.60;;;8.10;1.00;;;;;;5138408;28;20488;-67
2023/11/08 00:45:49;;;;;;;6.30;2.37;;;8.20;1.00;;;;;;5138514;28;20515;-70
2023/11/08 00:48:17;;;;;;;3.73;2.00;;;8.10;1.00;;;;;;5138104;28;20928;-68
2023/11/08 00:50:44;;;;;;;7.70;2.97;;;8.10;1.00;;;;;;5138238;28;20830;-67
2023/11/08 00:53:15;;;;;;;5.93;2.93;;;8.10;1.00;;;;;;5138327;28;20529;-66
2023/11/08 00:55:42;;;;;;;8.67;2.50;;;8.10;1.00;;;;;;5139012;28;20868;-67
2023/11/08 00:58:11;;;;;;;8.20;2.50;;;8.10;1.00;;;;;;5138221;28;20816;-70
2023/11/08 01:00:38;;;;;;;4.53;2.30;;;8.10;1.00;;;;;;5137761;28;20458;-71
2023/11/08 01:03:06;;;;;;;8.10;4.07;;;8.10;1.00;;;;;;5137947;28;20463;-70
2023/11/08 01:05:33;;;;;;;4.80;2.73;;;8.20;1.00;;;;;;5138327;28;20433;-67
2023/11/08 01:08:00;;;;;;;4.57;2.60;;;8.10;1.00;;;;;;5139205;28;20943;-67
2023/11/08 01:10:27;;;;;;;5.13;2.27;;;8.20;1.00;;;;;;5138029;28;20539;-67
2023/11/08 01:12:55;;;;;;;6.33;2.77;;;8.20;1.00;;;;;;5138367;28;20503;-67
2023/11/08 01:15:23;;;;;;;4.60;3.07;;;8.10;1.00;;;;;;5138732;28;20902;-68
2023/11/08 01:17:51;;;;;;;3.30;2.37;;;8.10;1.00;;;;;;5140386;27;20454;-69
2023/11/08 01:20:18;;;;;;;5.80;2.57;;;8.10;1.00;;;;;;5139778;27;20454;-68
2023/11/08 01:22:45;;;;;;;7.57;2.63;;;8.00;1.00;;;;;;5139736;27;20433;-67
2023/11/08 01:25:12;;;;;;;5.57;2.83;;;8.10;1.00;;;;;;5140300;27;20490;-68
2023/11/08 01:27:40;;;;;;;5.00;3.20;;;8.10;1.00;;;;;;5140185;27;20535;-69
2023/11/08 01:30:09;;;;;;;6.77;2.97;;;8.10;1.00;;;;;;5141877;27;20486;-69
2023/11/08 01:32:37;;;;;;;5.83;2.97;;;8.10;1.00;;;;;;5144889;27;20427;-70
2023/11/08 01:35:05;;;;;;;8.20;3.33;;;8.10;1.00;;;;;;5142600;27;20970;-71
2023/11/08 01:37:35;;;;;;;5.33;3.70;;;8.10;1.00;;;;;;5141230;27;20490;-70
2023/11/08 01:40:04;;;;;;;9.13;3.33;;;8.10;1.00;;;;;;5141746;27;20507;-70
2023/11/08 01:42:33;;;;;;;6.30;3.70;;;8.10;1.00;;;;;;5141313;27;20467;-69
2023/11/08 01:45:00;;;;;;;8.70;3.20;;;8.10;1.00;;;;;;5141232;27;20490;-68
2023/11/08 01:47:28;;;;;;;5.43;3.60;;;8.10;1.00;;;;;;5141137;27;20466;-68
2023/11/08 01:49:56;;;;;;;9.50;3.47;;;8.20;1.00;;;;;;5141166;27;20491;-69
2023/11/08 01:52:24;;;;;;;6.53;3.00;;;8.10;1.00;;;;;;5141096;27;20490;-70
2023/11/08 01:54:52;;;;;;;5.83;3.07;;;8.10;1.00;;;;;;5140363;27;20551;-67
2023/11/08 01:57:20;;;;;;;9.13;3.60;;;8.20;1.00;;;;;;5140873;27;20969;-69
2023/11/08 01:59:49;;;;;;;5.90;2.93;;;8.10;1.00;;;;;;5140864;27;20454;-70
2023/11/08 02:02:19;;;;;;;3.57;2.70;;;8.10;1.00;;;;;;5140757;27;20818;-68
2023/11/08 02:04:47;;;;;;;4.73;2.83;;;8.10;1.00;;;;;;5140837;27;20459;-70
2023/11/08 02:07:15;;;;;;;6.90;3.20;;;8.20;1.00;;;;;;5140988;27;20452;-69
2023/11/08 02:09:43;;;;;;;5.17;2.70;;;8.10;1.00;;;;;;5140709;27;20758;-67
2023/11/08 02:12:11;;;;;;;8.20;3.60;;;8.10;1.00;;;;;;5140592;27;20493;-68
2023/11/08 02:15:00;;;;;;;7.97;3.50;;;8.10;1.00;;;;;;5139764;27;20465;-68
2023/11/08 02:17:27;;;;;;;4.67;3.30;;;8.20;1.00;;;;;;5142376;27;20496;-67
2023/11/08 02:19:54;;;;;;;5.67;3.77;;;8.20;1.00;;;;;;5142959;27;20446;-68
2023/11/08 02:22:23;;;;;;;11.23;3.47;;;8.20;1.00;;;;;;5142580;27;20447;-69
2023/11/08 02:24:52;;;;;;;4.37;2.63;;;8.20;1.00;;;;;;5140640;27;20811;-70
2023/11/08 02:27:19;;;;;;;5.30;2.70;;;8.20;1.00;;;;;;5140493;27;20545;-70
2023/11/08 02:29:46;;;;;;;5.13;2.70;;;8.20;1.00;;;;;;5140145;27;20536;-69
2023/11/08 02:32:13;;;;;;;4.53;2.60;;;8.20;1.00;;;;;;5140876;27;20549;-70
2023/11/08 02:34:41;;;;;;;5.80;2.27;;;8.20;1.00;;;;;;5141305;27;20545;-70
2023/11/08 02:37:08;;;;;;;4.43;2.43;;;8.20;1.00;;;;;;5140809;27;20793;-71
2023/11/08 02:39:35;;;;;;;4.80;2.47;;;8.20;1.00;;;;;;5141308;27;20457;-70
2023/11/08 02:42:05;;;;;;;6.47;3.07;;;8.20;1.00;;;;;;5140493;27;20506;-69
2023/11/08 02:44:33;;;;;;;6.43;2.33;;;8.20;1.00;;;;;;5139781;27;20492;-72
2023/11/08 02:47:00;;;;;;;5.00;2.67;;;8.20;1.00;;;;;;5139981;27;20432;-69
2023/11/08 02:49:30;;;;;;;8.93;2.87;;;8.20;1.00;;;;;;5139345;27;20589;-69
2023/11/08 02:51:58;;;;;;;5.07;2.73;;;8.20;1.00;;;;;;5140051;27;20531;-68
2023/11/08 02:54:27;;;;;;;4.87;2.50;;;8.20;1.00;;;;;;5140119;27;20445;-71
2023/11/08 02:56:54;;;;;;;8.03;2.80;;;8.20;1.00;;;;;;5139790;27;20470;-67
2023/11/08 02:59:23;;;;;;;4.93;2.80;;;8.20;1.00;;;;;;5139781;27;20464;-68
2023/11/08 03:01:50;;;;;;;5.30;2.37;;;8.20;1.00;;;;;;5139774;27;20951;-66
2023/11/08 03:04:19;;;;;;;4.83;2.63;;;8.20;1.00;;;;;;5139357;27;20553;-67
2023/11/08 03:06:47;;;;;;;9.00;3.17;;;8.20;1.00;;;;;;5139555;27;20557;-67
2023/11/08 03:09:14;;;;;;;6.83;2.60;;;8.30;1.00;;;;;;5139870;27;20505;-67
2023/11/08 03:11:42;;;;;;;4.97;3.00;;;8.20;1.00;;;;;;5139665;27;20450;-67
2023/11/08 03:14:09;;;;;;;4.90;2.70;;;8.30;1.00;;;;;;5139179;27;20956;-67
2023/11/08 03:16:38;;;;;;;5.07;2.43;;;8.30;1.00;;;;;;5139325;27;21161;-68
2023/11/08 03:19:06;;;;;;;10.10;2.77;;;8.20;1.00;;;;;;5139527;27;20508;-68
2023/11/08 03:21:33;;;;;;;5.67;2.70;;;8.20;1.00;;;;;;5139357;27;20748;-68
2023/11/08 03:24:01;;;;;;;4.50;2.60;;;8.20;1.00;;;;;;5139547;27;20887;-68
2023/11/08 03:26:28;;;;;;;5.00;2.53;;;8.30;1.00;;;;;;5139269;27;20821;-68
2023/11/08 03:28:56;;;;;;;6.37;2.50;;;8.20;1.00;;;;;;5138025;27;20454;-68
2023/11/08 03:31:23;;;;;;;6.90;2.80;;;8.30;1.00;;;;;;5139086;27;20798;-68
2023/11/08 03:33:52;;;;;;;10.17;2.80;;;8.30;1.00;;;;;;5139219;27;20484;-68
2023/11/08 03:36:19;;;;;;;7.90;3.00;;;8.30;1.00;;;;;;5138548;27;20429;-69
2023/11/08 03:38:46;;;;;;;5.27;3.10;;;8.20;1.00;;;;;;5138203;27;20479;-68
2023/11/08 03:41:14;;;;;;;5.00;2.33;;;8.20;1.00;;;;;;5137979;27;20541;-68
2023/11/08 03:43:41;;;;;;;3.97;2.83;;;8.20;1.00;;;;;;5139088;27;20737;-68
2023/11/08 03:46:09;;;;;;;5.70;2.80;;;8.20;1.00;;;;;;5138680;27;20549;-67
2023/11/08 03:48:38;;;;;;;8.60;3.47;;;8.20;1.00;;;;;;5138982;27;20942;-69
2023/11/08 03:51:08;;;;;;;6.87;2.40;;;8.30;1.00;;;;;;5138682;27;20512;-67
2023/11/08 03:53:35;;;;;;;5.33;2.40;;;8.20;1.00;;;;;;5139011;27;20875;-67
2023/11/08 03:56:03;;;;;;;5.17;2.10;;;8.20;1.00;;;;;;5138108;27;20501;-67
2023/11/08 03:58:30;;;;;;;4.83;2.23;;;8.20;1.00;;;;;;5138886;27;20458;-67
2023/11/08 04:00:57;;;;;;;4.33;2.30;;;8.20;1.00;;;;;;5138073;27;20533;-66
2023/11/08 04:03:25;;;;;;;5.90;3.27;;;8.20;1.00;;;;;;5138630;27;20553;-67
2023/11/08 04:05:54;;;;;;;5.83;2.80;;;8.20;99.90;;;;;;5138768;27;20455;-67
2023/11/08 04:08:23;;;;;;;3.90;2.33;;;8.20;99.90;;;;;;5138853;27;20737;-67
2023/11/08 04:10:50;;;;;;;6.47;2.50;;;8.20;99.90;;;;;;5138784;27;20522;-66
2023/11/08 04:13:17;;;;;;;5.33;3.00;;;8.20;99.90;;;;;;5138896;27;20880;-66
2023/11/08 04:15:45;;;;;;;5.03;2.87;;;8.20;99.90;;;;;;5138644;27;20458;-67
2023/11/08 04:18:12;;;;;;;6.67;2.60;;;8.20;99.90;;;;;;5138083;27;20455;-66
2023/11/08 04:20:39;;;;;;;9.03;2.70;;;8.20;99.90;;;;;;5138615;27;20456;-66
2023/11/08 04:23:06;;;;;;;4.60;2.40;;;8.20;99.90;;;;;;5138429;27;20493;-66
2023/11/08 04:25:37;;;;;;;4.63;2.80;;;8.20;99.90;;;;;;5137394;27;20458;-65
2023/11/08 04:28:05;;;;;;;5.30;2.47;;;8.20;99.90;;;;;;5138670;27;20794;-65
2023/11/08 04:30:32;;;;;;;5.37;2.57;;;8.20;99.90;;;;;;5137212;28;20522;-66
2023/11/08 04:33:00;;;;;;;4.97;2.90;;;8.20;99.90;;;;;;5136915;28;20553;-66
2023/11/08 04:35:27;;;;;;;5.70;3.03;;;8.20;99.90;;;;;;5137174;28;20926;-67
2023/11/08 04:37:54;;;;;;;5.90;2.70;;;8.20;99.90;;;;;;5136635;28;20539;-66
2023/11/08 04:40:22;;;;;;;7.53;3.17;;;8.20;99.90;;;;;;5136019;28;20497;-67
2023/11/08 04:42:50;;;;;;;8.20;2.80;;;8.20;99.90;;;;;;5136339;28;20466;-65
2023/11/08 04:45:18;;;;;;;4.27;2.87;;;8.20;99.90;;;;;;5137616;28;20764;-67
2023/11/08 04:47:45;;;;;;;5.63;2.57;;;8.20;99.90;;;;;;5138705;28;20486;-66
2023/11/08 04:50:13;;;;;;;5.53;2.73;;;8.20;99.90;;;;;;5137848;28;20786;-66
2023/11/08 04:52:40;;;;;;;6.23;2.63;;;8.20;99.90;;;;;;5141481;27;20793;-66
2023/11/08 04:55:08;;;;;;;4.50;3.13;;;8.20;99.90;;;;;;5142446;27;20603;-66
2023/11/08 04:57:35;;;;;;;7.87;2.93;;;8.20;99.90;;;;;;5142424;27;20490;-65
2023/11/08 05:00:05;;;;;;;8.57;2.90;;;8.20;99.90;;;;;;5142250;27;20541;-66
2023/11/08 05:02:34;;;;;;;8.33;2.63;;;8.20;99.90;;;;;;5142287;27;20494;-66
2023/11/08 05:05:02;;;;;;;6.70;2.60;;;8.20;99.90;;;;;;5142342;27;20458;-65
2023/11/08 05:07:29;;;;;;;5.60;2.53;;;8.10;99.90;;;;;;5142542;27;20751;-65
2023/11/08 05:09:56;;;;;;;5.87;2.20;;;8.20;99.90;;;;;;5141824;27;20529;-65
2023/11/08 05:12:23;;;;;;;4.87;2.47;;;8.20;99.90;;;;;;5141074;27;20454;-67
2023/11/08 05:14:51;;;;;;;5.83;2.60;;;8.20;99.90;;;;;;5142011;27;20465;-65
2023/11/08 05:17:20;;;;;;;5.80;2.33;;;8.20;99.90;;;;;;5141890;27;20561;-65
2023/11/08 05:19:47;;;;;;;4.07;2.43;;;8.20;99.90;;;;;;5142040;27;20501;-64
2023/11/08 05:22:14;;;;;;;5.00;2.67;;;8.10;99.90;;;;;;5141991;27;20454;-65
2023/11/08 05:24:43;;;;;;;9.37;3.00;;;8.10;99.90;;;;;;5141561;27;20460;-65
2023/11/08 05:27:11;;;;;;;8.83;2.80;;;8.20;99.90;;;;;;5141331;27;20556;-65
2023/11/08 05:29:39;;;;;;;7.10;2.57;;;8.20;99.90;;;;;;5141873;27;20557;-65
2023/11/08 05:32:07;;;;;;;6.93;2.80;;;8.20;99.90;;;;;;5141118;27;20454;-64
2023/11/08 05:34:36;;;;;;;9.00;3.93;;;8.20;99.90;;;;;;5141524;27;20458;-64
2023/11/08 05:37:04;;;;;;;9.90;4.30;;;8.20;99.90;;;;;;5141303;27;20557;-64
2023/11/08 05:39:31;;;;;;;8.20;3.97;;;8.20;99.90;;;;;;5141575;27;20487;-64
2023/11/08 05:41:59;;;;;;;5.23;3.27;;;8.20;99.90;;;;;;5141584;27;20507;-64
2023/11/08 05:44:26;;;;;;;6.13;3.23;;;8.30;99.90;;;;;;5141454;27;20462;-64
2023/11/08 05:46:54;;;;;;;9.27;3.40;;;8.30;99.90;;;;;;5141281;27;20433;-65
2023/11/08 05:49:21;;;;;;;5.90;3.63;;;8.20;99.90;;;;;;5141620;27;20511;-64
2023/11/08 05:51:50;;;;;;;9.37;3.50;;;8.20;99.90;;;;;;5141256;27;20605;-65
2023/11/08 05:54:17;;;;;;;10.07;3.47;;;8.20;99.90;;;;;;5140816;27;20459;-65
2023/11/08 05:56:44;;;;;;;6.40;2.83;;;8.20;99.90;;;;;;5140854;27;20892;-65
2023/11/08 05:59:12;;;;;;;4.73;2.27;;;8.20;99.90;;;;;;5140867;27;20505;-63
2023/11/08 06:01:40;;;;;;;5.70;3.60;;;8.20;99.90;;;;;;5141158;27;20461;-65
2023/11/08 06:04:07;;;;;;;4.77;2.80;;;8.10;99.90;;;;;;5139549;27;20894;-65
2023/11/08 06:06:35;;;;;;;5.60;3.10;;;8.10;99.90;;;;;;5141041;27;20433;-66
2023/11/08 06:09:06;;;;;;;7.43;3.20;;;8.10;99.90;;;;;;5140892;27;20458;-63
2023/11/08 06:11:33;;;;;;;6.33;2.80;;;8.10;99.90;;;;;;5141355;27;20528;-64
2023/11/08 06:14:00;;;;;;;5.73;3.67;;;8.10;99.90;;;;;;5140271;27;20485;-64
2023/11/08 06:16:27;;;;;;;7.10;3.07;;;8.00;99.90;;;;;;5140705;27;20497;-64
2023/11/08 06:18:55;;;;;;;7.60;2.90;;;8.00;99.90;;;;;;5140571;27;20466;-65
2023/11/08 06:21:22;;;;;;;5.73;2.97;;;7.90;99.90;;;;;;5141134;27;20455;-64
2023/11/08 06:23:50;;;;;;;7.43;3.53;;;7.90;99.90;;;;;;5140235;27;20455;-65
2023/11/08 06:26:18;;;;;;;7.40;3.70;;;7.90;99.90;;;;;;5139338;27;20512;-64
2023/11/08 06:28:46;;;;;;;7.37;4.67;;;7.90;99.90;;;;;;5140145;27;20745;-64
2023/11/08 06:31:13;;;;;;;8.20;3.10;;;7.90;99.90;;;;;;5139180;27;20463;-64
2023/11/08 06:33:40;;;;;;;6.30;3.77;;;7.90;99.90;;;;;;5139981;27;20461;-64
2023/11/08 06:36:08;;;;;;;5.70;3.57;;;7.90;99.90;;;;;;5139618;27;20550;-64
2023/11/08 06:38:35;;;;;;;8.93;2.73;;;7.90;99.90;;;;;;5139969;27;20479;-63
2023/11/08 06:41:02;;;;;;;5.67;3.10;;;7.90;99.90;;;;;;5139849;27;20450;-67
2023/11/08 06:43:31;;;;;;;8.30;3.70;;;8.00;99.90;;;;;;5140236;27;20746;-65
2023/11/08 06:45:58;;;;;;;7.80;3.30;;;8.00;99.90;;;;;;5140139;27;20459;-64
2023/11/08 06:48:26;;;;;;;7.73;3.93;;;8.00;99.90;;;;;;5140527;27;20455;-65
2023/11/08 06:50:54;;;;;;;5.27;3.40;;;8.00;99.90;;;;;;5139873;27;20581;-64
2023/11/08 06:53:21;;;;;;;8.13;3.63;;;8.00;99.90;;;;;;5139952;27;20531;-64
2023/11/08 06:55:49;;;;;;;10.77;4.10;;;8.00;99.90;;;;;;5140056;27;20887;-63
2023/11/08 06:58:16;;;;;;;9.17;3.67;;;8.00;99.90;;;;;;5139623;27;20554;-64
2023/11/08 07:00:44;;;;;;;4.90;3.30;;;8.00;99.90;;;;;;5139886;27;20458;-64
2023/11/08 07:03:11;;;;;;;7.70;3.40;;;8.00;99.90;;;;;;5139770;27;20483;-64
2023/11/08 07:05:39;;;;;;;8.13;3.27;;;8.00;99.90;;;;;;5139974;27;20561;-64
2023/11/08 07:08:07;;;;;;;6.93;3.13;;;8.00;99.90;;;;;;5139547;27;20444;-64
2023/11/08 07:10:34;;;;;;;8.30;3.37;;;8.00;99.90;;;;;;5139946;27;20498;-64
2023/11/08 07:13:02;;;;;;;9.07;3.47;;;8.10;99.90;;;;;;5139441;27;20796;-64
2023/11/08 07:15:29;;;;;;;9.50;2.87;;;8.00;99.90;;;;;;5139458;27;20542;-65
2023/11/08 07:17:58;;;;;;;6.80;3.17;;;8.10;99.90;;;;;;5139865;27;20428;-65
2023/11/08 07:20:25;;;;;;;11.27;3.20;;;8.10;99.90;;;;;;5139100;27;20429;-65
2023/11/08 07:22:52;;;;;;;8.90;3.57;;;8.10;99.90;;;;;;5137468;27;20450;-65
2023/11/08 07:25:20;;;;;;;5.37;2.90;;;8.10;99.90;;;;;;5138253;27;20455;-65
2023/11/08 07:27:47;;;;;;;8.17;3.33;;;8.10;99.90;;;;;;5138344;27;20600;-64
2023/11/08 07:30:14;;;;;;;9.13;3.43;;;8.10;99.90;;;;;;5137712;27;20472;-64
2023/11/08 07:32:45;;;;;;;5.10;2.80;;;8.20;99.90;;;;;;5138478;27;20501;-65
2023/11/08 07:35:14;;;;;;;5.80;2.90;;;8.30;99.90;;;;;;5139269;27;20497;-63
2023/11/08 07:37:41;;;;;;;7.97;4.00;;;8.40;99.90;;;;;;5138934;27;20479;-65
2023/11/08 07:40:12;;;;;;;11.10;3.67;;;8.40;99.90;;;;;;5138834;27;20887;-65
2023/11/08 07:42:39;;;;;;;6.33;3.60;;;8.50;99.90;;;;;;5138160;27;20443;-66
2023/11/08 07:45:07;;;;;;;6.60;2.57;;;8.60;73.50;;;;;;5137018;27;20545;-65
2023/11/08 07:47:34;;;;;;;6.57;2.73;;;8.60;13.00;;;;;;5137672;27;20458;-63
2023/11/08 07:50:03;;;;;;;4.83;2.93;;;8.70;1.00;;;;;;5137562;27;20556;-64
2023/11/08 07:52:31;;;;;;;7.90;3.10;;;8.70;1.00;;;;;;5137166;27;20482;-65
2023/11/08 07:54:59;;;;;;;4.70;2.70;;;8.80;1.00;;;;;;5137590;27;20459;-66
2023/11/08 07:57:26;;;;;;;7.33;2.93;;;8.80;1.00;;;;;;5138261;27;20740;-65
2023/11/08 07:59:54;;;;;;;7.83;3.30;;;8.80;1.00;;;;;;5138880;27;20545;-64
2023/11/08 08:02:21;;;;;;;7.90;3.10;;;8.80;1.00;;;;;;5138525;27;20752;-65
2023/11/08 08:04:48;;;;;;;5.93;3.60;;;8.80;1.00;;;;;;5138550;27;20913;-65
2023/11/08 08:07:16;;;;;;;6.43;2.83;;;8.80;1.00;;;;;;5137907;27;20454;-65
2023/11/08 08:09:44;;;;;;;9.40;3.80;;;8.80;1.00;;;;;;5136998;27;20458;-65
2023/11/08 08:12:12;;;;;;;6.77;3.27;;;8.90;1.00;;;;;;5136508;27;20509;-65
2023/11/08 08:14:39;;;;;;;4.67;3.10;;;8.90;1.00;;;;;;5136852;27;20583;-65
2023/11/08 08:17:06;;;;;;;4.73;3.23;;;8.90;1.00;;;;;;5137417;27;20455;-65
2023/11/08 08:19:33;;;;;;;6.73;3.50;;;8.90;1.00;;;;;;5137136;27;20547;-65
2023/11/08 08:22:01;;;;;;;8.03;3.17;;;9.00;1.00;;;;;;5137713;27;20465;-66
2023/11/08 08:24:29;;;;;;;9.20;2.63;;;9.00;1.00;;;;;;5135446;27;20502;-65
2023/11/08 08:26:58;;;;;;;6.77;2.70;;;9.00;1.00;;;;;;5135316;27;20458;-65
2023/11/08 08:29:27;;;;;;;7.87;3.77;;;9.10;1.00;;;;;;5135689;27;20510;-65
2023/11/08 08:31:54;;;;;;;7.63;3.63;;;9.10;1.00;;;;;;5135952;28;20950;-66
2023/11/08 08:34:21;;;;;;;6.93;2.70;;;9.10;1.00;;;;;;5135771;28;20490;-65
2023/11/08 08:36:49;;;;;;;8.70;2.93;;;9.20;99.90;;;;;;5135916;28;20454;-65
2023/11/08 08:39:17;;;;;;;8.37;3.20;;;9.20;99.90;;;;;;5137027;28;20481;-65
2023/11/08 08:41:45;;;;;;;7.17;3.20;;;9.30;99.90;;;;;;5137226;28;20898;-64
2023/11/08 08:44:14;;;;;;;7.20;2.83;;;9.40;99.90;;;;;;5138414;28;20914;-66
2023/11/08 08:46:43;;;;;;;9.70;3.17;;;9.40;99.90;;;;;;5137616;28;20458;-65
2023/11/08 08:49:12;;;;;;;8.40;3.40;;;9.40;83.20;;;;;;5137615;28;20454;-65
2023/11/08 08:51:41;;;;;;;5.50;2.70;;;9.50;99.90;;;;;;5138473;28;20494;-64
2023/11/08 08:54:08;;;;;;;7.27;3.10;;;9.80;1.00;;;;;;5138522;28;20789;-65
2023/11/08 08:56:35;;;;;;;8.17;3.13;;;10.10;88.40;;;;;;5138194;28;20540;-64
2023/11/08 08:59:03;;;;;;;10.47;3.00;;;10.30;1.00;;;;;;5138167;28;20911;-64
2023/11/08 09:01:32;;;;;;;6.07;3.00;;;10.50;1.00;;;;;;5138319;28;20454;-64
2023/11/08 09:03:59;;;;;;;7.13;2.53;;;10.70;99.90;;;;;;5138397;28;20503;-64
2023/11/08 09:06:28;;;;;;;6.40;3.00;;;10.80;99.90;;;;;;5138181;28;20499;-64
2023/11/08 09:08:56;;;;;;;8.83;3.00;;;10.90;99.90;;;;;;5137352;28;20459;-64
2023/11/08 09:11:24;;;;;;;4.27;2.60;;;11.10;99.90;;;;;;5138661;28;20491;-64
2023/11/08 09:13:51;;;;;;;8.70;2.70;;;11.30;1.00;;;;;;5138360;28;20556;-64
2023/11/08 09:16:20;;;;;;;10.60;3.00;;;11.40;1.00;;;;;;5138087;28;20887;-64
2023/11/08 09:18:48;;;;;;;5.00;2.30;;;11.60;1.00;;;;;;5138537;28;20827;-63
2023/11/08 09:21:16;;;;;;;4.10;2.30;;;11.60;1.00;;;;;;5138287;28;20507;-63
2023/11/08 09:23:43;;;;;;;4.03;2.30;;;11.50;99.90;;;;;;5138461;28;20454;-63
2023/11/08 09:26:11;;;;;;;3.90;2.40;;;11.20;1.00;;;;;;5136878;28;20425;-63
2023/11/08 09:28:39;;;;;;;5.33;2.60;;;10.80;1.00;;;;;;5138439;28;20481;-63
2023/11/08 09:31:06;;;;;;;7.37;2.70;;;10.70;1.00;;;;;;5138304;28;20494;-63
2023/11/08 09:33:33;;;;;;;6.53;2.47;;;10.70;1.00;;;;;;5137855;28;20511;-64
2023/11/08 09:36:02;;;;;;;6.03;2.40;;;10.70;1.00;;;;;;5138604;28;20497;-63
2023/11/08 09:38:30;;;;;;;9.17;2.70;;;10.70;11.00;;;;;;5140593;27;20530;-68
2023/11/08 09:40:57;;;;;;;3.80;2.20;;;10.80;23.80;;;;;;5141775;27;20505;-63
2023/11/08 09:43:25;;;;;;;7.87;3.07;;;10.70;1.00;;;;;;5142040;27;20966;-63
2023/11/08 09:45:53;;;;;;;5.53;2.43;;;10.80;16.60;;;;;;5141516;27;20429;-63
2023/11/08 09:48:22;;;;;;;9.30;2.57;;;10.90;1.00;;;;;;5141382;27;20507;-63
2023/11/08 09:50:49;;;;;;;4.70;2.57;;;11.00;1.00;;;;;;5141479;27;20466;-62
2023/11/08 09:53:18;;;;;;;8.37;3.50;;;11.10;1.00;;;;;;5141672;27;20533;-64
2023/11/08 09:55:46;;;;;;;4.47;2.13;;;11.20;1.00;;;;;;5141686;27;20451;-63
2023/11/08 09:58:16;;;;;;;5.20;2.83;;;11.50;1.00;;;;;;5141425;27;20735;-62
2023/11/08 10:00:45;;;;;;;11.20;2.57;;;12.00;1.00;;;;;;5141022;27;20459;-64
2023/11/08 10:03:15;;;;;;;4.77;2.23;;;12.40;99.90;;;;;;5140867;27;20884;-62
2023/11/08 10:05:46;;;;;;;6.50;2.50;;;12.50;99.90;;;;;;5141559;27;20504;-62
2023/11/08 10:08:16;;;;;;;10.30;2.90;;;12.70;99.90;;;;;;5140577;27;20462;-61
2023/11/08 10:10:49;;;;;;;6.37;2.67;;;12.90;99.90;;;;;;5140701;27;20508;-62
2023/11/08 10:13:17;;;;;;;5.93;2.20;;;12.70;91.30;;;;;;5141149;27;20577;-67
2023/11/08 10:15:55;;;;;;;7.30;2.77;;;12.30;20.00;;;;;;5140970;27;20835;-62
2023/11/08 10:18:28;;;;;;;4.67;2.23;;;11.80;12.50;;;;;;5140203;27;20498;-62
2023/11/08 10:21:01;;;;;;;4.33;2.33;;;11.50;82.90;;;;;;5140817;27;20797;-62
2023/11/08 10:23:28;;;;;;;5.53;2.10;;;11.40;99.90;;;;;;5141180;27;20429;-61
2023/11/08 10:26:14;;;;;;;4.10;2.17;;;11.20;85.60;;;;;;5140651;27;20864;-62
2023/11/08 10:28:55;;;;;;;6.57;3.80;;;11.20;99.90;;;;;;5140710;27;20429;-62
2023/11/08 10:31:31;;;;;;;5.73;2.40;;;11.10;65.80;;;;;;5140995;27;20485;-62
2023/11/08 10:33:59;;;;;;;10.23;2.60;;;11.10;99.90;;;;;;5140644;27;20467;-61
2023/11/08 10:36:27;;;;;;;4.40;2.63;;;11.20;99.90;;;;;;5140211;27;20552;-61
2023/11/08 10:38:55;;;;;;;6.57;2.40;;;11.50;99.90;;;;;;5140233;27;20487;-61
2023/11/08 10:41:24;;;;;;;4.60;2.70;;;11.80;99.90;;;;;;5140719;27;20480;-61
2023/11/08 10:44:07;;;;;;;6.00;2.53;;;12.10;99.90;;;;;;5140829;27;20459;-60
2023/11/08 10:46:34;;;;;;;5.00;2.90;;;12.30;34.50;;;;;;5140295;27;20481;-61
2023/11/08 10:49:04;;;;;;;6.70;3.70;;;12.60;1.00;;;;;;5139173;27;20482;-61
2023/11/08 10:51:32;;;;;;;8.13;2.50;;;12.70;1.00;;;;;;5140461;27;20869;-61
2023/11/08 10:54:00;;;;;;;8.43;3.10;;;12.70;1.00;;;;;;5140592;27;20796;-64
2023/11/08 10:56:30;;;;;;;9.53;2.37;;;12.70;1.00;;;;;;5140216;27;20429;-61
2023/11/08 10:59:02;;;;;;;5.50;2.60;;;12.60;1.00;;;;;;5140211;27;20435;-61
2023/11/08 11:01:31;;;;;;;6.97;2.57;;;12.80;1.00;;;;;;5140162;27;20496;-61
2023/11/08 11:04:05;;;;;;;7.53;2.23;;;12.80;1.00;;;;;;5140235;27;20903;-61
2023/11/08 11:06:36;;;;;;;7.27;2.73;;;12.50;1.00;;;;;;5139995;27;20473;-60
2023/11/08 11:09:08;;;;;;;8.17;2.70;;;12.10;1.00;;;;;;5139835;27;20525;-60
2023/11/08 11:11:39;;;;;;;5.60;2.43;;;12.10;1.00;;;;;;5139955;27;20464;-61
2023/11/08 11:14:17;;;;;;;6.63;3.00;;;12.20;1.00;;;;;;5139843;27;20450;-61
2023/11/08 11:16:54;;;;;;;5.67;3.33;;;12.20;1.00;;;;;;5139594;27;20458;-61
2023/11/08 11:19:23;;;;;;;5.93;2.73;;;12.20;1.00;;;;;;5140128;27;20553;-61
2023/11/08 11:21:54;;;;;;;4.47;2.83;;;12.30;1.00;;;;;;5139922;27;20458;-61
2023/11/08 11:24:42;;;;;;;7.50;2.73;;;12.30;1.00;;;;;;5138284;27;20450;-61
2023/11/08 11:27:11;;;;;;;7.87;2.20;;;12.10;1.00;;;;;;5139899;27;20735;-61
2023/11/08 11:29:41;;;;;;;5.17;2.87;;;12.30;1.00;;;;;;5139931;27;20507;-61
2023/11/08 11:32:34;;;;;;;6.03;2.73;;;12.30;1.00;;;;;;5138772;27;20550;-63
2023/11/08 11:35:04;;;;;;;5.03;2.43;;;12.00;1.00;;;;;;5139175;27;20891;-61
2023/11/08 11:37:31;;;;;;;4.77;2.30;;;12.00;1.00;;;;;;5139257;27;20535;-61
2023/11/08 11:40:18;;;;;;;7.57;2.90;;;12.00;1.00;;;;;;5139249;27;20508;-62
2023/11/08 11:42:47;;;;;;;7.63;2.13;;;12.40;1.00;;;;;;5137538;27;20447;-61
2023/11/08 11:45:17;;;;;;;5.63;2.50;;;12.50;99.90;;;;;;5129180;27;20466;-61
2023/11/08 11:47:44;;;;;;;4.23;2.70;;;12.70;99.90;;;;;;5138858;27;20970;-61
2023/11/08 11:50:12;;;;;;;7.73;2.90;;;12.70;99.90;;;;;;5137270;27;20454;-61
2023/11/08 11:52:40;;;;;;;5.03;3.10;;;12.70;99.90;;;;;;5136906;27;20659;-60
2023/11/08 11:55:09;;;;;;;9.37;2.60;;;12.20;99.90;;;;;;5137832;27;20455;-61
2023/11/08 11:57:38;;;;;;;4.57;2.43;;;12.30;99.90;;;;;;5139233;27;20533;-62
2023/11/08 12:00:10;;;;;;;6.77;2.40;;;12.40;99.90;;;;;;5137822;27;20505;-61
2023/11/08 12:02:38;;;;;;;5.93;2.90;;;12.40;99.90;;;;;;5137467;27;20455;-61
2023/11/08 12:05:06;;;;;;;3.70;1.93;;;12.50;99.90;;;;;;5137569;27;20490;-61
2023/11/08 12:07:36;;;;;;;7.97;2.00;;;12.40;99.90;;;;;;5137790;27;20450;-60
2023/11/08 12:10:10;;;;;;;4.70;2.43;;;12.10;99.90;;;;;;5136933;27;20461;-60
2023/11/08 12:12:38;;;;;;;6.87;2.23;;;11.90;99.90;;;;;;5138411;27;20750;-61
2023/11/08 12:15:18;;;;;;;6.33;2.03;;;11.70;99.90;;;;;;5138389;27;20455;-61
2023/11/08 12:17:48;;;;;;;9.17;2.63;;;11.60;99.90;;;;;;5137968;27;20557;-61
2023/11/08 12:20:16;;;;;;;3.73;2.40;;;11.60;99.90;;;;;;5137646;27;20544;-61
2023/11/08 12:22:48;;;;;;;5.83;2.50;;;11.60;99.90;;;;;;5137944;27;20501;-61
2023/11/08 12:25:17;;;;;;;5.53;2.70;;;11.50;99.90;;;;;;5138898;27;20481;-61
2023/11/08 12:27:45;;;;;;;7.50;2.57;;;11.70;99.90;;;;;;5138475;27;20513;-61
2023/11/08 12:30:13;;;;;;;5.80;2.40;;;11.80;99.90;;;;;;5137801;27;20463;-61
2023/11/08 12:32:42;;;;;;;6.43;2.30;;;11.80;99.90;;;;;;5137748;28;20489;-62
2023/11/08 12:35:11;;;;;;;12.20;2.50;;;11.70;99.90;;;;;;5138099;28;20795;-61
2023/11/08 12:37:39;;;;;;;3.20;2.30;;;11.70;99.90;;;;;;5138295;28;20528;-61
2023/11/08 12:40:19;;;;;;;3.20;1.90;;;11.60;99.90;;;;;;5138130;28;20459;-62
2023/11/08 12:42:47;;;;;;;6.67;2.40;;;11.70;99.90;;;;;;5138342;28;20939;-61
2023/11/08 12:45:29;;;;;;;3.13;2.17;;;11.50;99.90;;;;;;5137929;28;20429;-61
2023/11/08 12:48:05;;;;;;;7.33;2.40;;;11.50;99.90;;;;;;5135113;28;20433;-61
2023/11/08 12:50:32;;;;;;;8.10;3.43;;;11.50;99.90;;;;;;5133620;28;20447;-61
2023/11/08 12:53:03;;;;;;;9.53;3.03;;;11.70;99.90;;;;;;5135738;28;20464;-61
2023/11/08 12:55:31;;;;;;;8.53;4.73;;;11.60;99.90;;;;;;5135221;28;20743;-61
2023/11/08 12:58:23;;;;;;;3.87;2.60;;;11.70;99.90;;;;;;5138125;28;20546;-61
2023/11/08 13:00:50;;;;;;;6.37;3.37;;;11.60;99.90;;;;;;5138043;28;20473;-60
2023/11/08 13:03:21;;;;;;;5.40;2.63;;;11.70;99.90;;;;;;5138163;28;20450;-61
2023/11/08 13:05:49;;;;;;;3.47;2.57;;;11.80;99.90;;;;;;5137302;28;20457;-61